sensor_id;sensor_type;location;lat;lon;timestamp;temperature;humidity
4596;DHT22;2310;49.978;8.742;2022-08-21T00:00:10;20.60;99.90
4596;DHT22;2310;49.978;8.742;2022-08-21T00:04:11;20.50;99.90
4596;DHT22;2310;49.978;8.742;2022-08-21T00:08:16;20.40;99.90
4596;DHT22;2310;49.978;8.742;2022-08-21T00:12:17;20.20;99.90
4596;DHT22;2310;49.978;8.742;2022-08-21T00:16:18;20.00;99.90
4596;DHT22;2310;49.978;8.742;2022-08-21T00:20:21;20.00;99.90
4596;DHT22;2310;49.978;8.742;2022-08-21T00:24:23;19.80;99.90
4596;DHT22;2310;49.978;8.742;2022-08-21T00:28:24;19.90;99.90
4596;DHT22;2310;49.978;8.742;2022-08-21T00:32:27;19.90;99.90
4596;DHT22;2310;49.978;8.742;2022-08-21T00:36:29;19.90;99.90
4596;DHT22;2310;49.978;8.742;2022-08-21T00:40:34;19.70;99.90
4596;DHT22;2310;49.978;8.742;2022-08-21T00:44:35;19.60;99.90
4596;DHT22;2310;49.978;8.742;2022-08-21T00:48:36;19.60;99.90
4596;DHT22;2310;49.978;8.742;2022-08-21T00:52:39;19.40;99.90
4596;DHT22;2310;49.978;8.742;2022-08-21T00:56:41;19.30;99.90
4596;DHT22;2310;49.978;8.742;2022-08-21T01:00:46;19.40;99.90
4596;DHT22;2310;49.978;8.742;2022-08-21T01:04:49;19.40;99.90
4596;DHT22;2310;49.978;8.742;2022-08-21T01:08:50;19.40;99.90
4596;DHT22;2310;49.978;8.742;2022-08-21T01:12:53;19.40;99.90
4596;DHT22;2310;49.978;8.742;2022-08-21T01:16:58;19.40;99.90
4596;DHT22;2310;49.978;8.742;2022-08-21T01:21:08;19.30;99.90
4596;DHT22;2310;49.978;8.742;2022-08-21T01:25:14;19.20;99.90
4596;DHT22;2310;49.978;8.742;2022-08-21T01:29:39;19.20;99.90
4596;DHT22;2310;49.978;8.742;2022-08-21T01:33:38;19.00;99.90
4596;DHT22;2310;49.978;8.742;2022-08-21T01:37:39;18.90;99.90
4596;DHT22;2310;49.978;8.742;2022-08-21T01:41:40;18.80;99.90
4596;DHT22;2310;49.978;8.742;2022-08-21T01:45:42;18.70;99.90
4596;DHT22;2310;49.978;8.742;2022-08-21T01:49:44;18.80;99.90
4596;DHT22;2310;49.978;8.742;2022-08-21T01:53:45;18.80;99.90
4596;DHT22;2310;49.978;8.742;2022-08-21T01:57:47;18.80;99.90
4596;DHT22;2310;49.978;8.742;2022-08-21T02:01:49;18.80;99.90
4596;DHT22;2310;49.978;8.742;2022-08-21T02:05:50;18.80;99.90
4596;DHT22;2310;49.978;8.742;2022-08-21T02:09:51;18.80;99.90
4596;DHT22;2310;49.978;8.742;2022-08-21T02:13:54;18.70;99.90
4596;DHT22;2310;49.978;8.742;2022-08-21T02:17:58;18.60;99.90
4596;DHT22;2310;49.978;8.742;2022-08-21T02:21:59;18.70;99.90
4596;DHT22;2310;49.978;8.742;2022-08-21T02:26:03;18.80;99.90
4596;DHT22;2310;49.978;8.742;2022-08-21T02:30:06;18.70;99.90
4596;DHT22;2310;49.978;8.742;2022-08-21T02:34:07;18.70;99.90
4596;DHT22;2310;49.978;8.742;2022-08-21T02:38:12;18.60;99.90
4596;DHT22;2310;49.978;8.742;2022-08-21T02:42:14;18.50;99.90
4596;DHT22;2310;49.978;8.742;2022-08-21T02:46:17;18.40;99.90
4596;DHT22;2310;49.978;8.742;2022-08-21T02:50:33;18.30;99.90
4596;DHT22;2310;49.978;8.742;2022-08-21T02:54:27;18.30;99.90
4596;DHT22;2310;49.978;8.742;2022-08-21T02:58:33;18.20;99.90
4596;DHT22;2310;49.978;8.742;2022-08-21T03:02:34;18.20;99.90
4596;DHT22;2310;49.978;8.742;2022-08-21T03:06:36;18.10;99.90
4596;DHT22;2310;49.978;8.742;2022-08-21T03:10:39;18.00;99.90
4596;DHT22;2310;49.978;8.742;2022-08-21T03:14:40;18.00;99.90
4596;DHT22;2310;49.978;8.742;2022-08-21T03:18:42;17.90;99.90
4596;DHT22;2310;49.978;8.742;2022-08-21T03:22:43;17.80;99.90
4596;DHT22;2310;49.978;8.742;2022-08-21T03:26:46;17.80;99.90
4596;DHT22;2310;49.978;8.742;2022-08-21T03:30:50;17.80;99.90
4596;DHT22;2310;49.978;8.742;2022-08-21T03:34:51;17.80;99.90
4596;DHT22;2310;49.978;8.742;2022-08-21T03:38:52;17.70;99.90
4596;DHT22;2310;49.978;8.742;2022-08-21T03:42:54;17.70;99.90
4596;DHT22;2310;49.978;8.742;2022-08-21T03:46:56;17.70;99.90
4596;DHT22;2310;49.978;8.742;2022-08-21T03:50:57;17.70;99.90
4596;DHT22;2310;49.978;8.742;2022-08-21T03:54:59;17.60;99.90
4596;DHT22;2310;49.978;8.742;2022-08-21T03:59:00;17.50;99.90
4596;DHT22;2310;49.978;8.742;2022-08-21T04:03:03;17.50;99.90
4596;DHT22;2310;49.978;8.742;2022-08-21T04:07:05;17.50;99.90
4596;DHT22;2310;49.978;8.742;2022-08-21T04:11:06;17.50;99.90
4596;DHT22;2310;49.978;8.742;2022-08-21T04:15:08;17.60;99.90
4596;DHT22;2310;49.978;8.742;2022-08-21T04:19:10;17.60;99.90
4596;DHT22;2310;49.978;8.742;2022-08-21T04:23:12;17.60;99.90
4596;DHT22;2310;49.978;8.742;2022-08-21T04:27:15;17.50;99.90
4596;DHT22;2310;49.978;8.742;2022-08-21T04:31:16;17.40;99.90
4596;DHT22;2310;49.978;8.742;2022-08-21T04:35:20;17.40;99.90
4596;DHT22;2310;49.978;8.742;2022-08-21T04:39:22;17.40;99.90
4596;DHT22;2310;49.978;8.742;2022-08-21T04:43:25;17.40;99.90
4596;DHT22;2310;49.978;8.742;2022-08-21T04:51:16;17.30;99.90
4596;DHT22;2310;49.978;8.742;2022-08-21T04:55:18;17.40;99.90
4596;DHT22;2310;49.978;8.742;2022-08-21T04:59:24;17.50;99.90
4596;DHT22;2310;49.978;8.742;2022-08-21T05:03:25;17.50;99.90
4596;DHT22;2310;49.978;8.742;2022-08-21T05:07:29;17.50;99.90
4596;DHT22;2310;49.978;8.742;2022-08-21T05:11:32;17.60;99.90
4596;DHT22;2310;49.978;8.742;2022-08-21T05:15:34;17.70;99.90
4596;DHT22;2310;49.978;8.742;2022-08-21T05:19:35;17.80;99.90
4596;DHT22;2310;49.978;8.742;2022-08-21T05:23:37;17.90;99.90
4596;DHT22;2310;49.978;8.742;2022-08-21T05:27:38;18.00;99.90
4596;DHT22;2310;49.978;8.742;2022-08-21T05:31:40;18.20;99.90
4596;DHT22;2310;49.978;8.742;2022-08-21T05:35:41;18.40;99.90
4596;DHT22;2310;49.978;8.742;2022-08-21T05:39:42;18.50;99.90
4596;DHT22;2310;49.978;8.742;2022-08-21T05:43:45;18.80;99.90
4596;DHT22;2310;49.978;8.742;2022-08-21T05:47:46;19.10;99.90
4596;DHT22;2310;49.978;8.742;2022-08-21T05:51:48;19.20;99.90
4596;DHT22;2310;49.978;8.742;2022-08-21T05:55:50;19.20;99.90
4596;DHT22;2310;49.978;8.742;2022-08-21T05:59:52;19.20;99.90
4596;DHT22;2310;49.978;8.742;2022-08-21T06:03:53;19.30;99.90
4596;DHT22;2310;49.978;8.742;2022-08-21T06:07:56;19.60;99.90
4596;DHT22;2310;49.978;8.742;2022-08-21T06:11:57;19.70;99.90
4596;DHT22;2310;49.978;8.742;2022-08-21T06:16:14;19.80;99.90
4596;DHT22;2310;49.978;8.742;2022-08-21T06:20:07;19.90;99.90
4596;DHT22;2310;49.978;8.742;2022-08-21T06:24:09;20.00;99.90
4596;DHT22;2310;49.978;8.742;2022-08-21T06:28:10;20.10;99.90
4596;DHT22;2310;49.978;8.742;2022-08-21T06:32:12;20.20;99.90
4596;DHT22;2310;49.978;8.742;2022-08-21T06:36:16;20.10;99.90
4596;DHT22;2310;49.978;8.742;2022-08-21T06:40:18;20.30;99.90
4596;DHT22;2310;49.978;8.742;2022-08-21T06:44:20;20.70;99.90
4596;DHT22;2310;49.978;8.742;2022-08-21T06:48:21;21.30;99.90
4596;DHT22;2310;49.978;8.742;2022-08-21T06:52:22;21.40;99.90
4596;DHT22;2310;49.978;8.742;2022-08-21T06:56:23;21.70;99.90
4596;DHT22;2310;49.978;8.742;2022-08-21T07:00:25;21.90;99.90
4596;DHT22;2310;49.978;8.742;2022-08-21T07:04:26;22.40;99.90
4596;DHT22;2310;49.978;8.742;2022-08-21T07:08:28;22.80;99.90
4596;DHT22;2310;49.978;8.742;2022-08-21T07:12:30;22.90;99.90
4596;DHT22;2310;49.978;8.742;2022-08-21T07:16:32;23.20;99.90
4596;DHT22;2310;49.978;8.742;2022-08-21T07:20:33;23.40;99.90
4596;DHT22;2310;49.978;8.742;2022-08-21T07:24:35;23.30;99.90
4596;DHT22;2310;49.978;8.742;2022-08-21T07:28:36;23.50;99.90
4596;DHT22;2310;49.978;8.742;2022-08-21T07:32:37;23.90;99.90
4596;DHT22;2310;49.978;8.742;2022-08-21T07:36:38;24.20;99.90
4596;DHT22;2310;49.978;8.742;2022-08-21T07:40:40;24.30;99.90
4596;DHT22;2310;49.978;8.742;2022-08-21T07:44:41;24.10;99.90
4596;DHT22;2310;49.978;8.742;2022-08-21T07:48:42;24.30;99.90
4596;DHT22;2310;49.978;8.742;2022-08-21T07:52:44;24.70;99.90
4596;DHT22;2310;49.978;8.742;2022-08-21T07:56:45;24.90;99.90
4596;DHT22;2310;49.978;8.742;2022-08-21T08:00:46;25.20;98.80
4596;DHT22;2310;49.978;8.742;2022-08-21T08:04:47;25.40;96.70
4596;DHT22;2310;49.978;8.742;2022-08-21T08:08:50;25.50;96.30
4596;DHT22;2310;49.978;8.742;2022-08-21T08:12:52;25.60;97.20
4596;DHT22;2310;49.978;8.742;2022-08-21T08:16:55;25.90;96.20
4596;DHT22;2310;49.978;8.742;2022-08-21T08:20:56;26.30;94.70
4596;DHT22;2310;49.978;8.742;2022-08-21T08:24:57;26.80;91.80
4596;DHT22;2310;49.978;8.742;2022-08-21T08:29:00;27.10;88.70
4596;DHT22;2310;49.978;8.742;2022-08-21T08:33:01;27.60;86.60
4596;DHT22;2310;49.978;8.742;2022-08-21T08:37:04;28.00;81.90
4596;DHT22;2310;49.978;8.742;2022-08-21T08:41:16;28.00;79.00
4596;DHT22;2310;49.978;8.742;2022-08-21T08:45:21;27.60;79.20
4596;DHT22;2310;49.978;8.742;2022-08-21T08:54:01;26.80;79.80
4596;DHT22;2310;49.978;8.742;2022-08-21T08:58:03;26.50;83.90
4596;DHT22;2310;49.978;8.742;2022-08-21T09:02:05;27.50;84.90
4596;DHT22;2310;49.978;8.742;2022-08-21T09:15:02;29.00;67.60
4596;DHT22;2310;49.978;8.742;2022-08-21T09:18:56;28.90;69.10
4596;DHT22;2310;49.978;8.742;2022-08-21T09:27:11;28.30;68.40
4596;DHT22;2310;49.978;8.742;2022-08-21T09:31:34;28.60;69.20
4596;DHT22;2310;49.978;8.742;2022-08-21T09:35:50;29.30;66.10
4596;DHT22;2310;49.978;8.742;2022-08-21T09:39:51;29.90;58.40
4596;DHT22;2310;49.978;8.742;2022-08-21T09:43:53;30.60;57.90
4596;DHT22;2310;49.978;8.742;2022-08-21T09:47:55;30.80;56.00
4596;DHT22;2310;49.978;8.742;2022-08-21T09:51:57;30.80;56.60
4596;DHT22;2310;49.978;8.742;2022-08-21T09:56:02;31.40;54.10
4596;DHT22;2310;49.978;8.742;2022-08-21T10:00:28;31.40;53.20
4596;DHT22;2310;49.978;8.742;2022-08-21T10:04:34;30.00;54.60
4596;DHT22;2310;49.978;8.742;2022-08-21T10:08:37;30.10;56.20
4596;DHT22;2310;49.978;8.742;2022-08-21T10:17:16;29.70;55.40
4596;DHT22;2310;49.978;8.742;2022-08-21T10:21:33;29.80;55.60
4596;DHT22;2310;49.978;8.742;2022-08-21T10:25:45;29.30;55.50
4596;DHT22;2310;49.978;8.742;2022-08-21T10:30:05;30.00;54.10
4596;DHT22;2310;49.978;8.742;2022-08-21T10:34:30;29.80;54.50
4596;DHT22;2310;49.978;8.742;2022-08-21T10:47:27;29.50;53.30
4596;DHT22;2310;49.978;8.742;2022-08-21T10:51:37;30.30;52.10
4596;DHT22;2310;49.978;8.742;2022-08-21T10:55:50;31.20;50.40
4596;DHT22;2310;49.978;8.742;2022-08-21T10:59:59;31.40;49.20
4596;DHT22;2310;49.978;8.742;2022-08-21T11:04:24;31.40;49.30
4596;DHT22;2310;49.978;8.742;2022-08-21T11:08:33;31.10;50.10
4596;DHT22;2310;49.978;8.742;2022-08-21T11:12:46;31.20;49.70
4596;DHT22;2310;49.978;8.742;2022-08-21T11:16:57;31.60;48.80
4596;DHT22;2310;49.978;8.742;2022-08-21T11:25:27;32.20;47.00
4596;DHT22;2310;49.978;8.742;2022-08-21T11:29:39;32.00;47.20
4596;DHT22;2310;49.978;8.742;2022-08-21T11:34:07;32.60;45.80
4596;DHT22;2310;49.978;8.742;2022-08-21T11:43:00;32.90;44.10
4596;DHT22;2310;49.978;8.742;2022-08-21T11:47:30;33.60;43.70
4596;DHT22;2310;49.978;8.742;2022-08-21T11:51:29;33.00;42.40
4596;DHT22;2310;49.978;8.742;2022-08-21T11:55:44;31.40;44.00
4596;DHT22;2310;49.978;8.742;2022-08-21T11:59:59;32.00;45.20
4596;DHT22;2310;49.978;8.742;2022-08-21T12:04:00;32.00;43.90
4596;DHT22;2310;49.978;8.742;2022-08-21T12:12:27;32.20;43.40
4596;DHT22;2310;49.978;8.742;2022-08-21T12:16:34;32.50;43.20
4596;DHT22;2310;49.978;8.742;2022-08-21T12:20:44;32.70;43.30
4596;DHT22;2310;49.978;8.742;2022-08-21T12:24:49;32.20;42.90
4596;DHT22;2310;49.978;8.742;2022-08-21T12:28:51;31.30;44.40
4596;DHT22;2310;49.978;8.742;2022-08-21T12:32:58;31.80;43.70
4596;DHT22;2310;49.978;8.742;2022-08-21T12:37:04;32.20;43.80
4596;DHT22;2310;49.978;8.742;2022-08-21T12:41:12;32.70;43.50
4596;DHT22;2310;49.978;8.742;2022-08-21T12:45:22;32.00;42.00
4596;DHT22;2310;49.978;8.742;2022-08-21T12:49:31;31.40;44.10
4596;DHT22;2310;49.978;8.742;2022-08-21T12:53:53;32.30;43.30
4596;DHT22;2310;49.978;8.742;2022-08-21T12:57:54;32.90;42.00
4596;DHT22;2310;49.978;8.742;2022-08-21T13:01:58;33.10;41.30
4596;DHT22;2310;49.978;8.742;2022-08-21T13:06:02;33.00;41.60
4596;DHT22;2310;49.978;8.742;2022-08-21T13:10:40;33.30;41.40
4596;DHT22;2310;49.978;8.742;2022-08-21T13:18:34;33.80;40.60
4596;DHT22;2310;49.978;8.742;2022-08-21T13:22:43;33.80;40.60
4596;DHT22;2310;49.978;8.742;2022-08-21T13:26:45;33.50;40.90
4596;DHT22;2310;49.978;8.742;2022-08-21T13:30:49;33.60;40.30
4596;DHT22;2310;49.978;8.742;2022-08-21T13:34:51;33.40;40.10
4596;DHT22;2310;49.978;8.742;2022-08-21T13:38:54;33.30;40.20
4596;DHT22;2310;49.978;8.742;2022-08-21T13:42:56;33.60;39.90
4596;DHT22;2310;49.978;8.742;2022-08-21T13:47:00;33.10;39.60
4596;DHT22;2310;49.978;8.742;2022-08-21T13:51:03;33.60;39.60
4596;DHT22;2310;49.978;8.742;2022-08-21T13:55:12;33.80;39.50
4596;DHT22;2310;49.978;8.742;2022-08-21T13:59:25;33.20;39.20
4596;DHT22;2310;49.978;8.742;2022-08-21T14:03:43;33.70;39.80
4596;DHT22;2310;49.978;8.742;2022-08-21T14:07:47;33.10;38.90
4596;DHT22;2310;49.978;8.742;2022-08-21T14:11:50;33.10;39.00
4596;DHT22;2310;49.978;8.742;2022-08-21T14:15:57;33.10;39.40
4596;DHT22;2310;49.978;8.742;2022-08-21T14:19:59;32.70;39.30
4596;DHT22;2310;49.978;8.742;2022-08-21T14:24:07;32.80;40.00
4596;DHT22;2310;49.978;8.742;2022-08-21T14:28:23;32.60;39.20
4596;DHT22;2310;49.978;8.742;2022-08-21T14:32:30;32.20;39.50
4596;DHT22;2310;49.978;8.742;2022-08-21T14:36:33;32.10;39.50
4596;DHT22;2310;49.978;8.742;2022-08-21T14:40:34;32.00;39.40
4596;DHT22;2310;49.978;8.742;2022-08-21T14:44:35;31.90;39.80
4596;DHT22;2310;49.978;8.742;2022-08-21T14:48:37;31.90;39.90
4596;DHT22;2310;49.978;8.742;2022-08-21T14:52:39;31.60;40.00
4596;DHT22;2310;49.978;8.742;2022-08-21T14:56:41;30.70;40.60
4596;DHT22;2310;49.978;8.742;2022-08-21T15:00:42;30.80;41.20
4596;DHT22;2310;49.978;8.742;2022-08-21T15:04:43;30.10;41.60
4596;DHT22;2310;49.978;8.742;2022-08-21T15:08:44;30.40;41.90
4596;DHT22;2310;49.978;8.742;2022-08-21T15:12:46;31.00;41.00
4596;DHT22;2310;49.978;8.742;2022-08-21T15:16:48;30.70;40.50
4596;DHT22;2310;49.978;8.742;2022-08-21T15:20:50;31.00;41.30
4596;DHT22;2310;49.978;8.742;2022-08-21T15:24:51;30.80;40.80
4596;DHT22;2310;49.978;8.742;2022-08-21T15:28:52;30.10;41.00
4596;DHT22;2310;49.978;8.742;2022-08-21T15:32:54;29.90;42.10
4596;DHT22;2310;49.978;8.742;2022-08-21T15:36:57;29.90;42.10
4596;DHT22;2310;49.978;8.742;2022-08-21T15:40:58;29.90;41.50
4596;DHT22;2310;49.978;8.742;2022-08-21T15:45:00;30.60;41.70
4596;DHT22;2310;49.978;8.742;2022-08-21T15:49:02;30.50;41.60
4596;DHT22;2310;49.978;8.742;2022-08-21T15:53:03;30.50;41.60
4596;DHT22;2310;49.978;8.742;2022-08-21T15:57:04;30.60;41.90
4596;DHT22;2310;49.978;8.742;2022-08-21T16:01:06;30.40;41.30
4596;DHT22;2310;49.978;8.742;2022-08-21T16:05:07;30.50;40.90
4596;DHT22;2310;49.978;8.742;2022-08-21T16:09:12;30.40;41.10
4596;DHT22;2310;49.978;8.742;2022-08-21T16:13:18;30.00;41.20
4596;DHT22;2310;49.978;8.742;2022-08-21T16:17:21;30.30;41.80
4596;DHT22;2310;49.978;8.742;2022-08-21T16:21:23;30.00;40.90
4596;DHT22;2310;49.978;8.742;2022-08-21T16:25:25;30.50;41.40
4596;DHT22;2310;49.978;8.742;2022-08-21T16:29:30;30.70;41.00
4596;DHT22;2310;49.978;8.742;2022-08-21T16:33:38;30.70;40.60
4596;DHT22;2310;49.978;8.742;2022-08-21T16:37:41;30.50;41.10
4596;DHT22;2310;49.978;8.742;2022-08-21T16:41:43;30.60;41.10
4596;DHT22;2310;49.978;8.742;2022-08-21T16:45:45;30.60;41.10
4596;DHT22;2310;49.978;8.742;2022-08-21T16:49:46;30.60;41.20
4596;DHT22;2310;49.978;8.742;2022-08-21T16:53:48;30.50;41.10
4596;DHT22;2310;49.978;8.742;2022-08-21T16:57:50;30.40;40.90
4596;DHT22;2310;49.978;8.742;2022-08-21T17:01:52;30.30;41.60
4596;DHT22;2310;49.978;8.742;2022-08-21T17:05:54;30.10;41.10
4596;DHT22;2310;49.978;8.742;2022-08-21T17:09:55;30.10;41.60
4596;DHT22;2310;49.978;8.742;2022-08-21T17:13:58;30.10;41.80
4596;DHT22;2310;49.978;8.742;2022-08-21T17:18:03;29.90;42.10
4596;DHT22;2310;49.978;8.742;2022-08-21T17:22:06;29.70;42.00
4596;DHT22;2310;49.978;8.742;2022-08-21T17:26:07;29.60;42.60
4596;DHT22;2310;49.978;8.742;2022-08-21T17:30:12;29.50;43.10
4596;DHT22;2310;49.978;8.742;2022-08-21T17:34:14;29.50;42.40
4596;DHT22;2310;49.978;8.742;2022-08-21T17:38:15;29.40;42.40
4596;DHT22;2310;49.978;8.742;2022-08-21T17:42:16;29.30;43.10
4596;DHT22;2310;49.978;8.742;2022-08-21T17:46:27;29.30;44.40
4596;DHT22;2310;49.978;8.742;2022-08-21T17:50:26;29.10;43.60
4596;DHT22;2310;49.978;8.742;2022-08-21T17:54:27;29.00;44.20
4596;DHT22;2310;49.978;8.742;2022-08-21T17:58:29;28.90;44.50
4596;DHT22;2310;49.978;8.742;2022-08-21T18:02:32;28.70;45.20
4596;DHT22;2310;49.978;8.742;2022-08-21T18:06:33;28.50;46.00
4596;DHT22;2310;49.978;8.742;2022-08-21T18:10:36;28.30;46.90
4596;DHT22;2310;49.978;8.742;2022-08-21T18:14:39;28.10;47.50
4596;DHT22;2310;49.978;8.742;2022-08-21T18:18:42;27.80;47.90
4596;DHT22;2310;49.978;8.742;2022-08-21T18:22:44;27.70;48.50
4596;DHT22;2310;49.978;8.742;2022-08-21T18:26:45;27.50;49.30
4596;DHT22;2310;49.978;8.742;2022-08-21T18:30:47;27.20;50.10
4596;DHT22;2310;49.978;8.742;2022-08-21T18:34:49;27.00;50.40
4596;DHT22;2310;49.978;8.742;2022-08-21T18:38:51;26.70;51.20
4596;DHT22;2310;49.978;8.742;2022-08-21T18:42:52;26.60;51.20
4596;DHT22;2310;49.978;8.742;2022-08-21T18:46:58;26.50;51.20
4596;DHT22;2310;49.978;8.742;2022-08-21T18:51:00;26.40;51.60
4596;DHT22;2310;49.978;8.742;2022-08-21T18:55:03;26.30;52.20
4596;DHT22;2310;49.978;8.742;2022-08-21T18:59:07;26.30;52.30
4596;DHT22;2310;49.978;8.742;2022-08-21T19:03:19;26.00;52.80
4596;DHT22;2310;49.978;8.742;2022-08-21T19:07:17;25.90;51.70
4596;DHT22;2310;49.978;8.742;2022-08-21T19:11:19;25.70;52.40
4596;DHT22;2310;49.978;8.742;2022-08-21T19:15:23;25.60;53.30
4596;DHT22;2310;49.978;8.742;2022-08-21T19:19:24;25.50;53.80
4596;DHT22;2310;49.978;8.742;2022-08-21T19:23:26;25.40;54.60
4596;DHT22;2310;49.978;8.742;2022-08-21T19:27:30;25.30;54.30
4596;DHT22;2310;49.978;8.742;2022-08-21T19:31:40;25.30;54.00
4596;DHT22;2310;49.978;8.742;2022-08-21T19:35:41;25.50;53.60
4596;DHT22;2310;49.978;8.742;2022-08-21T19:39:45;25.60;53.90
4596;DHT22;2310;49.978;8.742;2022-08-21T19:43:52;25.60;53.90
4596;DHT22;2310;49.978;8.742;2022-08-21T19:47:54;25.80;54.10
4596;DHT22;2310;49.978;8.742;2022-08-21T19:51:55;25.60;54.10
4596;DHT22;2310;49.978;8.742;2022-08-21T19:55:56;25.50;54.00
4596;DHT22;2310;49.978;8.742;2022-08-21T19:59:57;25.20;54.80
4596;DHT22;2310;49.978;8.742;2022-08-21T20:03:59;25.00;54.40
4596;DHT22;2310;49.978;8.742;2022-08-21T20:08:01;24.90;54.80
4596;DHT22;2310;49.978;8.742;2022-08-21T20:12:06;24.70;55.00
4596;DHT22;2310;49.978;8.742;2022-08-21T20:16:12;24.90;55.40
4596;DHT22;2310;49.978;8.742;2022-08-21T20:20:13;25.00;55.20
4596;DHT22;2310;49.978;8.742;2022-08-21T20:24:15;25.20;56.20
4596;DHT22;2310;49.978;8.742;2022-08-21T20:28:16;25.30;55.40
4596;DHT22;2310;49.978;8.742;2022-08-21T20:32:18;25.10;55.40
4596;DHT22;2310;49.978;8.742;2022-08-21T20:36:20;25.00;55.40
4596;DHT22;2310;49.978;8.742;2022-08-21T20:40:22;24.90;55.50
4596;DHT22;2310;49.978;8.742;2022-08-21T20:44:28;24.80;55.60
4596;DHT22;2310;49.978;8.742;2022-08-21T20:48:36;24.90;55.30
4596;DHT22;2310;49.978;8.742;2022-08-21T20:52:40;24.80;55.30
4596;DHT22;2310;49.978;8.742;2022-08-21T20:56:55;24.70;56.40
4596;DHT22;2310;49.978;8.742;2022-08-21T21:00:55;24.60;55.80
4596;DHT22;2310;49.978;8.742;2022-08-21T21:05:17;24.70;56.10
4596;DHT22;2310;49.978;8.742;2022-08-21T21:09:33;24.80;56.00
4596;DHT22;2310;49.978;8.742;2022-08-21T21:17:51;24.60;56.40
4596;DHT22;2310;49.978;8.742;2022-08-21T21:21:57;24.60;56.40
4596;DHT22;2310;49.978;8.742;2022-08-21T21:26:02;24.60;56.50
4596;DHT22;2310;49.978;8.742;2022-08-21T21:30:19;24.30;56.50
4596;DHT22;2310;49.978;8.742;2022-08-21T21:34:13;24.20;55.00
4596;DHT22;2310;49.978;8.742;2022-08-21T21:38:30;23.80;53.80
4596;DHT22;2310;49.978;8.742;2022-08-21T21:43:04;23.60;54.50
4596;DHT22;2310;49.978;8.742;2022-08-21T21:47:07;23.50;53.90
4596;DHT22;2310;49.978;8.742;2022-08-21T21:51:35;23.40;54.60
4596;DHT22;2310;49.978;8.742;2022-08-21T22:00:11;23.20;55.00
4596;DHT22;2310;49.978;8.742;2022-08-21T22:08:42;23.00;56.40
4596;DHT22;2310;49.978;8.742;2022-08-21T22:21:35;22.90;57.20
4596;DHT22;2310;49.978;8.742;2022-08-21T22:25:41;22.80;57.80
4596;DHT22;2310;49.978;8.742;2022-08-21T22:29:46;22.60;58.60
4596;DHT22;2310;49.978;8.742;2022-08-21T22:34:05;22.40;59.30
4596;DHT22;2310;49.978;8.742;2022-08-21T22:38:27;22.30;60.10
4596;DHT22;2310;49.978;8.742;2022-08-21T22:42:24;22.20;61.10
4596;DHT22;2310;49.978;8.742;2022-08-21T22:46:41;22.20;61.80
4596;DHT22;2310;49.978;8.742;2022-08-21T22:50:45;22.10;62.60
4596;DHT22;2310;49.978;8.742;2022-08-21T22:54:47;22.10;63.80
4596;DHT22;2310;49.978;8.742;2022-08-21T22:58:54;21.90;65.00
4596;DHT22;2310;49.978;8.742;2022-08-21T23:02:57;21.90;66.30
4596;DHT22;2310;49.978;8.742;2022-08-21T23:07:01;21.90;67.20
4596;DHT22;2310;49.978;8.742;2022-08-21T23:11:11;21.90;68.10
4596;DHT22;2310;49.978;8.742;2022-08-21T23:15:12;22.20;68.00
4596;DHT22;2310;49.978;8.742;2022-08-21T23:23:56;22.20;68.60
4596;DHT22;2310;49.978;8.742;2022-08-21T23:28:02;22.30;68.80
4596;DHT22;2310;49.978;8.742;2022-08-21T23:36:21;22.00;71.90
4596;DHT22;2310;49.978;8.742;2022-08-21T23:40:46;22.00;72.40
4596;DHT22;2310;49.978;8.742;2022-08-21T23:49:26;22.00;74.10
4596;DHT22;2310;49.978;8.742;2022-08-21T23:58:12;22.00;75.00
